sensor_id;sensor_type;location;lat;lon;timestamp;P1;durP1;ratioP1;P2;durP2;ratioP2
60472;SDS011;46318;52.716;6.444;2024-02-23T00:01:04;2.53;;;0.90;;
60472;SDS011;46318;52.716;6.444;2024-02-23T00:03:30;2.05;;;1.05;;
60472;SDS011;46318;52.716;6.444;2024-02-23T00:05:56;1.98;;;0.73;;
60472;SDS011;46318;52.716;6.444;2024-02-23T00:08:23;2.78;;;0.77;;
60472;SDS011;46318;52.716;6.444;2024-02-23T00:10:49;3.72;;;0.73;;
60472;SDS011;46318;52.716;6.444;2024-02-23T00:13:15;4.40;;;1.17;;
60472;SDS011;46318;52.716;6.444;2024-02-23T00:15:41;2.10;;;0.82;;
60472;SDS011;46318;52.716;6.444;2024-02-23T00:18:09;2.42;;;1.35;;
60472;SDS011;46318;52.716;6.444;2024-02-23T00:20:34;5.65;;;1.45;;
60472;SDS011;46318;52.716;6.444;2024-02-23T00:23:01;2.42;;;0.93;;
60472;SDS011;46318;52.716;6.444;2024-02-23T00:25:27;3.28;;;1.05;;
60472;SDS011;46318;52.716;6.444;2024-02-23T00:27:53;2.58;;;0.70;;
60472;SDS011;46318;52.716;6.444;2024-02-23T00:30:19;1.48;;;0.60;;
60472;SDS011;46318;52.716;6.444;2024-02-23T00:32:45;0.63;;;0.60;;
60472;SDS011;46318;52.716;6.444;2024-02-23T00:35:11;0.60;;;0.50;;
60472;SDS011;46318;52.716;6.444;2024-02-23T00:37:36;0.93;;;0.60;;
60472;SDS011;46318;52.716;6.444;2024-02-23T00:40:03;1.52;;;0.70;;
60472;SDS011;46318;52.716;6.444;2024-02-23T00:42:32;1.52;;;0.95;;
60472;SDS011;46318;52.716;6.444;2024-02-23T00:44:57;1.48;;;0.90;;
60472;SDS011;46318;52.716;6.444;2024-02-23T00:47:23;1.63;;;0.90;;
60472;SDS011;46318;52.716;6.444;2024-02-23T00:49:49;0.90;;;0.60;;
60472;SDS011;46318;52.716;6.444;2024-02-23T00:52:15;1.58;;;0.80;;
60472;SDS011;46318;52.716;6.444;2024-02-23T00:54:41;0.82;;;0.80;;
60472;SDS011;46318;52.716;6.444;2024-02-23T00:57:07;0.98;;;0.60;;
60472;SDS011;46318;52.716;6.444;2024-02-23T00:59:33;1.85;;;1.00;;
60472;SDS011;46318;52.716;6.444;2024-02-23T01:01:59;2.42;;;0.90;;
60472;SDS011;46318;52.716;6.444;2024-02-23T01:04:24;2.88;;;0.95;;
60472;SDS011;46318;52.716;6.444;2024-02-23T01:06:50;1.80;;;0.88;;
60472;SDS011;46318;52.716;6.444;2024-02-23T01:09:16;1.77;;;1.00;;
60472;SDS011;46318;52.716;6.444;2024-02-23T01:11:45;2.58;;;1.10;;
60472;SDS011;46318;52.716;6.444;2024-02-23T01:14:13;3.45;;;1.38;;
60472;SDS011;46318;52.716;6.444;2024-02-23T01:16:38;3.95;;;1.33;;
60472;SDS011;46318;52.716;6.444;2024-02-23T01:19:04;5.10;;;1.30;;
60472;SDS011;46318;52.716;6.444;2024-02-23T01:21:30;3.10;;;1.50;;
60472;SDS011;46318;52.716;6.444;2024-02-23T01:23:56;5.57;;;1.95;;
60472;SDS011;46318;52.716;6.444;2024-02-23T01:26:22;5.40;;;1.60;;
60472;SDS011;46318;52.716;6.444;2024-02-23T01:28:48;5.85;;;1.90;;
60472;SDS011;46318;52.716;6.444;2024-02-23T01:31:14;4.47;;;1.80;;
60472;SDS011;46318;52.716;6.444;2024-02-23T01:33:40;6.10;;;2.00;;
60472;SDS011;46318;52.716;6.444;2024-02-23T01:36:06;4.72;;;1.85;;
60472;SDS011;46318;52.716;6.444;2024-02-23T01:38:32;5.40;;;1.75;;
60472;SDS011;46318;52.716;6.444;2024-02-23T01:40:59;6.80;;;2.10;;
60472;SDS011;46318;52.716;6.444;2024-02-23T01:43:25;6.43;;;2.10;;
60472;SDS011;46318;52.716;6.444;2024-02-23T01:45:51;6.05;;;2.10;;
60472;SDS011;46318;52.716;6.444;2024-02-23T01:48:17;7.30;;;2.08;;
60472;SDS011;46318;52.716;6.444;2024-02-23T01:50:44;4.78;;;1.73;;
60472;SDS011;46318;52.716;6.444;2024-02-23T01:53:10;8.60;;;2.63;;
60472;SDS011;46318;52.716;6.444;2024-02-23T01:55:42;6.32;;;2.55;;
60472;SDS011;46318;52.716;6.444;2024-02-23T01:58:11;9.23;;;2.75;;
60472;SDS011;46318;52.716;6.444;2024-02-23T02:00:37;11.35;;;3.25;;
60472;SDS011;46318;52.716;6.444;2024-02-23T02:03:04;8.23;;;2.55;;
60472;SDS011;46318;52.716;6.444;2024-02-23T02:05:30;8.48;;;2.50;;
60472;SDS011;46318;52.716;6.444;2024-02-23T02:07:56;11.20;;;3.42;;
60472;SDS011;46318;52.716;6.444;2024-02-23T02:10:25;13.48;;;3.35;;
60472;SDS011;46318;52.716;6.444;2024-02-23T02:12:52;9.05;;;2.60;;
60472;SDS011;46318;52.716;6.444;2024-02-23T02:15:18;7.22;;;2.50;;
60472;SDS011;46318;52.716;6.444;2024-02-23T02:17:46;9.40;;;2.78;;
60472;SDS011;46318;52.716;6.444;2024-02-23T02:20:13;9.80;;;2.75;;
60472;SDS011;46318;52.716;6.444;2024-02-23T02:22:39;10.90;;;3.08;;
60472;SDS011;46318;52.716;6.444;2024-02-23T02:25:05;7.97;;;2.58;;
60472;SDS011;46318;52.716;6.444;2024-02-23T02:27:32;9.25;;;2.88;;
60472;SDS011;46318;52.716;6.444;2024-02-23T02:29:58;10.70;;;3.30;;
60472;SDS011;46318;52.716;6.444;2024-02-23T02:32:24;10.57;;;3.15;;
60472;SDS011;46318;52.716;6.444;2024-02-23T02:34:49;9.35;;;2.75;;
60472;SDS011;46318;52.716;6.444;2024-02-23T02:37:15;12.23;;;3.53;;
60472;SDS011;46318;52.716;6.444;2024-02-23T02:39:41;12.65;;;3.35;;
60472;SDS011;46318;52.716;6.444;2024-02-23T02:42:07;12.13;;;3.35;;
60472;SDS011;46318;52.716;6.444;2024-02-23T02:44:33;10.50;;;3.47;;
60472;SDS011;46318;52.716;6.444;2024-02-23T02:46:59;11.05;;;3.95;;
60472;SDS011;46318;52.716;6.444;2024-02-23T02:49:25;8.70;;;3.15;;
60472;SDS011;46318;52.716;6.444;2024-02-23T02:51:51;11.32;;;3.30;;
60472;SDS011;46318;52.716;6.444;2024-02-23T02:54:16;9.15;;;2.72;;
60472;SDS011;46318;52.716;6.444;2024-02-23T02:56:43;8.40;;;2.30;;
60472;SDS011;46318;52.716;6.444;2024-02-23T02:59:11;8.95;;;2.65;;
60472;SDS011;46318;52.716;6.444;2024-02-23T03:01:37;9.52;;;2.72;;
60472;SDS011;46318;52.716;6.444;2024-02-23T03:04:04;8.32;;;2.83;;
60472;SDS011;46318;52.716;6.444;2024-02-23T03:06:30;8.85;;;2.55;;
60472;SDS011;46318;52.716;6.444;2024-02-23T03:08:55;8.75;;;2.38;;
60472;SDS011;46318;52.716;6.444;2024-02-23T03:11:21;7.10;;;2.30;;
60472;SDS011;46318;52.716;6.444;2024-02-23T03:13:47;7.30;;;2.70;;
60472;SDS011;46318;52.716;6.444;2024-02-23T03:16:20;7.70;;;3.00;;
60472;SDS011;46318;52.716;6.444;2024-02-23T03:18:48;6.18;;;2.53;;
60472;SDS011;46318;52.716;6.444;2024-02-23T03:21:15;6.38;;;2.38;;
60472;SDS011;46318;52.716;6.444;2024-02-23T03:23:41;9.50;;;2.63;;
60472;SDS011;46318;52.716;6.444;2024-02-23T03:26:07;11.30;;;2.63;;
60472;SDS011;46318;52.716;6.444;2024-02-23T03:28:33;6.28;;;2.65;;
60472;SDS011;46318;52.716;6.444;2024-02-23T03:31:01;6.75;;;2.88;;
60472;SDS011;46318;52.716;6.444;2024-02-23T03:33:27;9.15;;;2.78;;
60472;SDS011;46318;52.716;6.444;2024-02-23T03:35:53;7.40;;;2.60;;
60472;SDS011;46318;52.716;6.444;2024-02-23T03:38:20;5.28;;;2.10;;
60472;SDS011;46318;52.716;6.444;2024-02-23T03:40:46;5.90;;;2.03;;
60472;SDS011;46318;52.716;6.444;2024-02-23T03:43:12;9.77;;;2.08;;
60472;SDS011;46318;52.716;6.444;2024-02-23T03:45:37;5.00;;;1.70;;
60472;SDS011;46318;52.716;6.444;2024-02-23T03:48:03;7.25;;;1.80;;
60472;SDS011;46318;52.716;6.444;2024-02-23T03:50:30;5.35;;;1.95;;
60472;SDS011;46318;52.716;6.444;2024-02-23T03:52:55;6.55;;;1.70;;
60472;SDS011;46318;52.716;6.444;2024-02-23T03:55:21;9.10;;;1.92;;
60472;SDS011;46318;52.716;6.444;2024-02-23T03:57:47;4.82;;;1.83;;
60472;SDS011;46318;52.716;6.444;2024-02-23T04:00:13;5.70;;;1.70;;
60472;SDS011;46318;52.716;6.444;2024-02-23T04:02:40;4.63;;;1.80;;
60472;SDS011;46318;52.716;6.444;2024-02-23T04:05:06;5.90;;;2.13;;
60472;SDS011;46318;52.716;6.444;2024-02-23T04:07:32;5.57;;;2.38;;
60472;SDS011;46318;52.716;6.444;2024-02-23T04:09:58;5.78;;;1.98;;
60472;SDS011;46318;52.716;6.444;2024-02-23T04:12:24;6.82;;;2.35;;
60472;SDS011;46318;52.716;6.444;2024-02-23T04:14:49;7.13;;;2.38;;
60472;SDS011;46318;52.716;6.444;2024-02-23T04:17:15;8.57;;;2.72;;
60472;SDS011;46318;52.716;6.444;2024-02-23T04:19:42;6.82;;;2.90;;
60472;SDS011;46318;52.716;6.444;2024-02-23T04:22:08;7.30;;;2.90;;
60472;SDS011;46318;52.716;6.444;2024-02-23T04:24:38;6.47;;;2.60;;
60472;SDS011;46318;52.716;6.444;2024-02-23T04:27:05;10.02;;;3.60;;
60472;SDS011;46318;52.716;6.444;2024-02-23T04:29:31;9.23;;;4.47;;
60472;SDS011;46318;52.716;6.444;2024-02-23T04:31:58;8.23;;;4.60;;
60472;SDS011;46318;52.716;6.444;2024-02-23T04:34:25;11.52;;;5.20;;
60472;SDS011;46318;52.716;6.444;2024-02-23T04:36:50;9.45;;;5.45;;
60472;SDS011;46318;52.716;6.444;2024-02-23T04:39:16;11.88;;;6.07;;
60472;SDS011;46318;52.716;6.444;2024-02-23T04:41:42;14.13;;;7.80;;
60472;SDS011;46318;52.716;6.444;2024-02-23T04:44:08;15.57;;;7.30;;
60472;SDS011;46318;52.716;6.444;2024-02-23T04:46:34;10.55;;;7.75;;
60472;SDS011;46318;52.716;6.444;2024-02-23T04:49:00;11.60;;;7.50;;
60472;SDS011;46318;52.716;6.444;2024-02-23T04:51:26;10.07;;;7.65;;
60472;SDS011;46318;52.716;6.444;2024-02-23T04:53:52;13.27;;;8.27;;
60472;SDS011;46318;52.716;6.444;2024-02-23T04:56:18;14.35;;;8.18;;
60472;SDS011;46318;52.716;6.444;2024-02-23T04:58:44;12.05;;;8.20;;
60472;SDS011;46318;52.716;6.444;2024-02-23T05:01:10;12.90;;;7.75;;
60472;SDS011;46318;52.716;6.444;2024-02-23T05:03:36;11.75;;;8.10;;
60472;SDS011;46318;52.716;6.444;2024-02-23T05:06:02;15.55;;;8.15;;
60472;SDS011;46318;52.716;6.444;2024-02-23T05:08:29;11.43;;;7.60;;
60472;SDS011;46318;52.716;6.444;2024-02-23T05:10:56;13.50;;;8.27;;
60472;SDS011;46318;52.716;6.444;2024-02-23T05:13:22;16.00;;;8.55;;
60472;SDS011;46318;52.716;6.444;2024-02-23T05:15:49;13.25;;;7.60;;
60472;SDS011;46318;52.716;6.444;2024-02-23T05:18:15;14.77;;;7.82;;
60472;SDS011;46318;52.716;6.444;2024-02-23T05:20:40;14.23;;;8.32;;
60472;SDS011;46318;52.716;6.444;2024-02-23T05:23:07;9.00;;;7.82;;
60472;SDS011;46318;52.716;6.444;2024-02-23T05:25:32;12.88;;;8.27;;
60472;SDS011;46318;52.716;6.444;2024-02-23T05:27:59;18.27;;;8.23;;
60472;SDS011;46318;52.716;6.444;2024-02-23T05:30:25;12.85;;;7.95;;
60472;SDS011;46318;52.716;6.444;2024-02-23T05:32:52;12.27;;;7.50;;
60472;SDS011;46318;52.716;6.444;2024-02-23T05:35:18;14.20;;;8.52;;
60472;SDS011;46318;52.716;6.444;2024-02-23T05:37:44;13.32;;;8.40;;
60472;SDS011;46318;52.716;6.444;2024-02-23T05:40:09;14.05;;;8.98;;
60472;SDS011;46318;52.716;6.444;2024-02-23T05:42:36;12.98;;;8.75;;
60472;SDS011;46318;52.716;6.444;2024-02-23T05:45:03;14.02;;;8.55;;
60472;SDS011;46318;52.716;6.444;2024-02-23T05:47:36;12.27;;;8.25;;
60472;SDS011;46318;52.716;6.444;2024-02-23T05:50:07;11.50;;;7.65;;
60472;SDS011;46318;52.716;6.444;2024-02-23T05:52:34;14.60;;;8.30;;
60472;SDS011;46318;52.716;6.444;2024-02-23T05:55:02;13.70;;;7.82;;
60472;SDS011;46318;52.716;6.444;2024-02-23T05:57:29;12.02;;;7.32;;
60472;SDS011;46318;52.716;6.444;2024-02-23T05:59:55;13.02;;;7.97;;
60472;SDS011;46318;52.716;6.444;2024-02-23T06:02:21;12.60;;;6.72;;
60472;SDS011;46318;52.716;6.444;2024-02-23T06:04:48;11.52;;;7.32;;
60472;SDS011;46318;52.716;6.444;2024-02-23T06:07:14;14.73;;;7.55;;
60472;SDS011;46318;52.716;6.444;2024-02-23T06:09:43;14.10;;;7.38;;
60472;SDS011;46318;52.716;6.444;2024-02-23T06:12:09;16.85;;;8.02;;
60472;SDS011;46318;52.716;6.444;2024-02-23T06:14:35;13.25;;;7.30;;
60472;SDS011;46318;52.716;6.444;2024-02-23T06:17:01;10.60;;;7.72;;
60472;SDS011;46318;52.716;6.444;2024-02-23T06:19:27;14.18;;;8.10;;
60472;SDS011;46318;52.716;6.444;2024-02-23T06:21:53;13.45;;;8.02;;
60472;SDS011;46318;52.716;6.444;2024-02-23T06:24:19;11.88;;;6.90;;
60472;SDS011;46318;52.716;6.444;2024-02-23T06:26:45;15.30;;;8.18;;
60472;SDS011;46318;52.716;6.444;2024-02-23T06:29:13;13.82;;;8.48;;
60472;SDS011;46318;52.716;6.444;2024-02-23T06:31:39;16.42;;;7.85;;
60472;SDS011;46318;52.716;6.444;2024-02-23T06:34:06;12.45;;;8.77;;
60472;SDS011;46318;52.716;6.444;2024-02-23T06:36:33;13.75;;;8.57;;
60472;SDS011;46318;52.716;6.444;2024-02-23T06:38:59;19.52;;;8.80;;
60472;SDS011;46318;52.716;6.444;2024-02-23T06:41:25;13.30;;;8.20;;
60472;SDS011;46318;52.716;6.444;2024-02-23T06:43:51;12.23;;;8.02;;
60472;SDS011;46318;52.716;6.444;2024-02-23T06:46:18;15.40;;;8.50;;
60472;SDS011;46318;52.716;6.444;2024-02-23T06:48:47;13.90;;;8.52;;
60472;SDS011;46318;52.716;6.444;2024-02-23T06:51:13;15.60;;;8.20;;
60472;SDS011;46318;52.716;6.444;2024-02-23T06:53:40;12.73;;;7.82;;
60472;SDS011;46318;52.716;6.444;2024-02-23T06:56:06;14.10;;;7.40;;
60472;SDS011;46318;52.716;6.444;2024-02-23T06:58:32;15.93;;;8.18;;
60472;SDS011;46318;52.716;6.444;2024-02-23T07:00:58;12.73;;;7.05;;
60472;SDS011;46318;52.716;6.444;2024-02-23T07:03:25;10.70;;;6.82;;
60472;SDS011;46318;52.716;6.444;2024-02-23T07:05:50;11.00;;;7.18;;
60472;SDS011;46318;52.716;6.444;2024-02-23T07:08:16;12.02;;;6.55;;
60472;SDS011;46318;52.716;6.444;2024-02-23T07:10:43;12.95;;;6.30;;
60472;SDS011;46318;52.716;6.444;2024-02-23T07:13:08;10.98;;;6.85;;
60472;SDS011;46318;52.716;6.444;2024-02-23T07:15:35;11.07;;;6.40;;
60472;SDS011;46318;52.716;6.444;2024-02-23T07:18:03;11.73;;;5.78;;
60472;SDS011;46318;52.716;6.444;2024-02-23T07:20:29;10.18;;;4.93;;
60472;SDS011;46318;52.716;6.444;2024-02-23T07:22:55;12.45;;;5.90;;
60472;SDS011;46318;52.716;6.444;2024-02-23T07:25:21;9.02;;;5.35;;
60472;SDS011;46318;52.716;6.444;2024-02-23T07:27:47;9.07;;;5.18;;
60472;SDS011;46318;52.716;6.444;2024-02-23T07:30:14;7.95;;;5.00;;
60472;SDS011;46318;52.716;6.444;2024-02-23T07:32:41;7.70;;;4.60;;
60472;SDS011;46318;52.716;6.444;2024-02-23T07:35:08;9.55;;;4.60;;
60472;SDS011;46318;52.716;6.444;2024-02-23T07:37:34;9.35;;;4.35;;
60472;SDS011;46318;52.716;6.444;2024-02-23T07:40:01;9.38;;;4.03;;
60472;SDS011;46318;52.716;6.444;2024-02-23T07:42:29;9.95;;;4.25;;
60472;SDS011;46318;52.716;6.444;2024-02-23T07:44:56;9.38;;;4.05;;
60472;SDS011;46318;52.716;6.444;2024-02-23T07:47:22;7.50;;;4.00;;
60472;SDS011;46318;52.716;6.444;2024-02-23T07:49:49;7.10;;;3.65;;
60472;SDS011;46318;52.716;6.444;2024-02-23T07:52:14;8.50;;;3.70;;
60472;SDS011;46318;52.716;6.444;2024-02-23T07:54:40;9.02;;;4.00;;
60472;SDS011;46318;52.716;6.444;2024-02-23T07:57:06;7.88;;;3.08;;
60472;SDS011;46318;52.716;6.444;2024-02-23T07:59:32;8.52;;;3.42;;
60472;SDS011;46318;52.716;6.444;2024-02-23T08:01:58;9.40;;;3.83;;
60472;SDS011;46318;52.716;6.444;2024-02-23T08:04:24;8.48;;;3.17;;
60472;SDS011;46318;52.716;6.444;2024-02-23T08:06:50;7.25;;;3.20;;
60472;SDS011;46318;52.716;6.444;2024-02-23T08:09:16;12.68;;;3.58;;
60472;SDS011;46318;52.716;6.444;2024-02-23T08:11:42;8.80;;;3.70;;
60472;SDS011;46318;52.716;6.444;2024-02-23T08:14:08;8.80;;;3.60;;
60472;SDS011;46318;52.716;6.444;2024-02-23T08:16:34;8.50;;;3.45;;
60472;SDS011;46318;52.716;6.444;2024-02-23T08:19:00;7.65;;;3.70;;
60472;SDS011;46318;52.716;6.444;2024-02-23T08:21:26;7.43;;;3.13;;
60472;SDS011;46318;52.716;6.444;2024-02-23T08:23:52;6.35;;;3.35;;
60472;SDS011;46318;52.716;6.444;2024-02-23T08:26:18;7.57;;;3.45;;
60472;SDS011;46318;52.716;6.444;2024-02-23T08:28:44;7.50;;;3.55;;
60472;SDS011;46318;52.716;6.444;2024-02-23T08:31:09;5.70;;;3.20;;
60472;SDS011;46318;52.716;6.444;2024-02-23T08:33:35;8.15;;;2.90;;
60472;SDS011;46318;52.716;6.444;2024-02-23T08:36:01;7.82;;;2.75;;
60472;SDS011;46318;52.716;6.444;2024-02-23T08:38:30;5.10;;;2.58;;
60472;SDS011;46318;52.716;6.444;2024-02-23T08:40:57;6.72;;;2.47;;
60472;SDS011;46318;52.716;6.444;2024-02-23T08:43:24;7.00;;;2.30;;
60472;SDS011;46318;52.716;6.444;2024-02-23T08:45:50;7.82;;;2.33;;
60472;SDS011;46318;52.716;6.444;2024-02-23T08:48:16;6.80;;;2.08;;
60472;SDS011;46318;52.716;6.444;2024-02-23T08:50:43;5.47;;;2.05;;
60472;SDS011;46318;52.716;6.444;2024-02-23T08:53:09;6.15;;;2.05;;
60472;SDS011;46318;52.716;6.444;2024-02-23T08:55:35;7.22;;;2.28;;
60472;SDS011;46318;52.716;6.444;2024-02-23T08:58:00;5.78;;;2.22;;
60472;SDS011;46318;52.716;6.444;2024-02-23T09:00:26;7.80;;;2.10;;
60472;SDS011;46318;52.716;6.444;2024-02-23T09:02:52;4.97;;;2.20;;
60472;SDS011;46318;52.716;6.444;2024-02-23T09:05:17;5.80;;;2.20;;
60472;SDS011;46318;52.716;6.444;2024-02-23T09:07:44;5.57;;;2.45;;
60472;SDS011;46318;52.716;6.444;2024-02-23T09:10:10;5.45;;;2.00;;
60472;SDS011;46318;52.716;6.444;2024-02-23T09:12:37;8.48;;;2.17;;
60472;SDS011;46318;52.716;6.444;2024-02-23T09:15:03;5.20;;;2.20;;
60472;SDS011;46318;52.716;6.444;2024-02-23T09:17:30;6.85;;;2.10;;
60472;SDS011;46318;52.716;6.444;2024-02-23T09:19:56;7.88;;;2.42;;
60472;SDS011;46318;52.716;6.444;2024-02-23T09:22:22;7.47;;;2.50;;
60472;SDS011;46318;52.716;6.444;2024-02-23T09:24:47;6.43;;;2.22;;
60472;SDS011;46318;52.716;6.444;2024-02-23T09:27:13;7.53;;;2.22;;
60472;SDS011;46318;52.716;6.444;2024-02-23T09:29:40;4.80;;;1.88;;
60472;SDS011;46318;52.716;6.444;2024-02-23T09:32:07;6.22;;;2.28;;
60472;SDS011;46318;52.716;6.444;2024-02-23T09:34:33;5.45;;;2.60;;
60472;SDS011;46318;52.716;6.444;2024-02-23T09:36:59;8.27;;;2.30;;
60472;SDS011;46318;52.716;6.444;2024-02-23T09:39:24;4.30;;;1.95;;
60472;SDS011;46318;52.716;6.444;2024-02-23T09:41:55;8.95;;;2.30;;
60472;SDS011;46318;52.716;6.444;2024-02-23T09:44:21;8.48;;;2.30;;
60472;SDS011;46318;52.716;6.444;2024-02-23T09:46:48;7.15;;;2.30;;
60472;SDS011;46318;52.716;6.444;2024-02-23T09:49:14;7.40;;;2.08;;
60472;SDS011;46318;52.716;6.444;2024-02-23T09:51:41;6.70;;;2.08;;
60472;SDS011;46318;52.716;6.444;2024-02-23T09:54:07;4.45;;;1.92;;
60472;SDS011;46318;52.716;6.444;2024-02-23T09:56:35;6.90;;;2.10;;
60472;SDS011;46318;52.716;6.444;2024-02-23T09:59:02;8.75;;;2.60;;
60472;SDS011;46318;52.716;6.444;2024-02-23T10:01:30;5.97;;;2.10;;
60472;SDS011;46318;52.716;6.444;2024-02-23T10:03:58;5.55;;;1.88;;
60472;SDS011;46318;52.716;6.444;2024-02-23T10:06:26;5.57;;;2.33;;
60472;SDS011;46318;52.716;6.444;2024-02-23T10:08:55;5.90;;;2.00;;
60472;SDS011;46318;52.716;6.444;2024-02-23T10:11:21;7.85;;;2.50;;
60472;SDS011;46318;52.716;6.444;2024-02-23T10:13:47;5.18;;;2.08;;
60472;SDS011;46318;52.716;6.444;2024-02-23T10:16:20;5.85;;;2.40;;
60472;SDS011;46318;52.716;6.444;2024-02-23T10:18:52;6.72;;;2.28;;
60472;SDS011;46318;52.716;6.444;2024-02-23T10:21:18;7.05;;;2.80;;
60472;SDS011;46318;52.716;6.444;2024-02-23T10:23:44;6.55;;;2.50;;
60472;SDS011;46318;52.716;6.444;2024-02-23T10:26:11;4.90;;;2.08;;
60472;SDS011;46318;52.716;6.444;2024-02-23T10:28:37;5.75;;;2.00;;
60472;SDS011;46318;52.716;6.444;2024-02-23T10:31:06;7.35;;;2.05;;
60472;SDS011;46318;52.716;6.444;2024-02-23T10:33:32;5.68;;;2.05;;
60472;SDS011;46318;52.716;6.444;2024-02-23T10:35:57;8.23;;;2.10;;
60472;SDS011;46318;52.716;6.444;2024-02-23T10:38:28;6.80;;;2.30;;
60472;SDS011;46318;52.716;6.444;2024-02-23T10:40:57;5.22;;;2.05;;
60472;SDS011;46318;52.716;6.444;2024-02-23T10:43:37;4.95;;;1.80;;
60472;SDS011;46318;52.716;6.444;2024-02-23T10:46:09;9.10;;;2.28;;
60472;SDS011;46318;52.716;6.444;2024-02-23T10:48:43;8.40;;;2.30;;
60472;SDS011;46318;52.716;6.444;2024-02-23T10:51:10;6.40;;;1.90;;
60472;SDS011;46318;52.716;6.444;2024-02-23T10:53:39;5.38;;;2.13;;
60472;SDS011;46318;52.716;6.444;2024-02-23T10:56:05;7.70;;;2.28;;
60472;SDS011;46318;52.716;6.444;2024-02-23T10:58:32;4.95;;;1.88;;
60472;SDS011;46318;52.716;6.444;2024-02-23T11:01:03;4.10;;;2.00;;
60472;SDS011;46318;52.716;6.444;2024-02-23T11:03:33;8.10;;;2.45;;
60472;SDS011;46318;52.716;6.444;2024-02-23T11:06:05;7.68;;;2.40;;
60472;SDS011;46318;52.716;6.444;2024-02-23T11:08:32;6.97;;;2.08;;
60472;SDS011;46318;52.716;6.444;2024-02-23T11:11:06;6.20;;;2.22;;
60472;SDS011;46318;52.716;6.444;2024-02-23T11:13:37;4.55;;;1.90;;
60472;SDS011;46318;52.716;6.444;2024-02-23T11:16:04;5.07;;;2.30;;
60472;SDS011;46318;52.716;6.444;2024-02-23T11:18:31;5.13;;;2.25;;
60472;SDS011;46318;52.716;6.444;2024-02-23T11:21:00;5.38;;;2.08;;
60472;SDS011;46318;52.716;6.444;2024-02-23T11:26:28;6.45;;;1.75;;
60472;SDS011;46318;52.716;6.444;2024-02-23T11:28:53;7.45;;;2.33;;
60472;SDS011;46318;52.716;6.444;2024-02-23T11:31:20;7.45;;;2.25;;
60472;SDS011;46318;52.716;6.444;2024-02-23T11:33:51;4.18;;;2.05;;
60472;SDS011;46318;52.716;6.444;2024-02-23T11:36:22;7.45;;;2.03;;
60472;SDS011;46318;52.716;6.444;2024-02-23T11:38:57;5.88;;;2.50;;
60472;SDS011;46318;52.716;6.444;2024-02-23T11:41:25;4.13;;;1.77;;
60472;SDS011;46318;52.716;6.444;2024-02-23T11:43:53;6.68;;;1.90;;
60472;SDS011;46318;52.716;6.444;2024-02-23T11:46:20;7.25;;;2.88;;
60472;SDS011;46318;52.716;6.444;2024-02-23T11:48:50;3.90;;;1.80;;
60472;SDS011;46318;52.716;6.444;2024-02-23T11:51:19;4.80;;;2.08;;
60472;SDS011;46318;52.716;6.444;2024-02-23T11:53:46;6.53;;;1.95;;
60472;SDS011;46318;52.716;6.444;2024-02-23T11:56:13;5.68;;;2.13;;
60472;SDS011;46318;52.716;6.444;2024-02-23T11:58:40;6.50;;;1.88;;
60472;SDS011;46318;52.716;6.444;2024-02-23T12:01:06;4.65;;;1.80;;
60472;SDS011;46318;52.716;6.444;2024-02-23T12:03:32;4.38;;;1.63;;
60472;SDS011;46318;52.716;6.444;2024-02-23T12:05:59;3.67;;;1.60;;
60472;SDS011;46318;52.716;6.444;2024-02-23T12:08:26;4.97;;;1.73;;
60472;SDS011;46318;52.716;6.444;2024-02-23T12:10:56;5.20;;;1.70;;
60472;SDS011;46318;52.716;6.444;2024-02-23T12:13:25;7.40;;;1.85;;
60472;SDS011;46318;52.716;6.444;2024-02-23T12:15:52;5.65;;;1.70;;
60472;SDS011;46318;52.716;6.444;2024-02-23T12:18:22;3.53;;;1.80;;
60472;SDS011;46318;52.716;6.444;2024-02-23T12:21:00;5.78;;;2.10;;
60472;SDS011;46318;52.716;6.444;2024-02-23T12:23:37;4.65;;;1.95;;
60472;SDS011;46318;52.716;6.444;2024-02-23T12:26:12;7.97;;;2.58;;
60472;SDS011;46318;52.716;6.444;2024-02-23T12:28:41;3.83;;;1.55;;
60472;SDS011;46318;52.716;6.444;2024-02-23T12:31:07;5.07;;;1.80;;
60472;SDS011;46318;52.716;6.444;2024-02-23T12:33:34;5.45;;;1.90;;
60472;SDS011;46318;52.716;6.444;2024-02-23T12:36:02;4.47;;;1.70;;
60472;SDS011;46318;52.716;6.444;2024-02-23T12:38:30;4.90;;;1.90;;
60472;SDS011;46318;52.716;6.444;2024-02-23T12:40:56;6.60;;;2.00;;
60472;SDS011;46318;52.716;6.444;2024-02-23T12:43:22;5.13;;;2.10;;
60472;SDS011;46318;52.716;6.444;2024-02-23T12:45:54;5.05;;;2.53;;
60472;SDS011;46318;52.716;6.444;2024-02-23T12:48:21;6.07;;;2.20;;
60472;SDS011;46318;52.716;6.444;2024-02-23T12:50:48;5.40;;;2.15;;
60472;SDS011;46318;52.716;6.444;2024-02-23T12:58:33;6.57;;;2.28;;
60472;SDS011;46318;52.716;6.444;2024-02-23T13:01:00;4.60;;;2.03;;
60472;SDS011;46318;52.716;6.444;2024-02-23T13:03:26;4.80;;;2.60;;
60472;SDS011;46318;52.716;6.444;2024-02-23T13:05:55;5.00;;;2.17;;
60472;SDS011;46318;52.716;6.444;2024-02-23T13:08:22;4.97;;;2.45;;
60472;SDS011;46318;52.716;6.444;2024-02-23T13:10:49;4.50;;;2.05;;
60472;SDS011;46318;52.716;6.444;2024-02-23T13:13:16;5.07;;;2.28;;
60472;SDS011;46318;52.716;6.444;2024-02-23T13:15:42;6.72;;;2.28;;
60472;SDS011;46318;52.716;6.444;2024-02-23T13:18:09;4.80;;;2.30;;
60472;SDS011;46318;52.716;6.444;2024-02-23T13:20:37;5.43;;;2.08;;
60472;SDS011;46318;52.716;6.444;2024-02-23T13:23:04;6.13;;;2.30;;
60472;SDS011;46318;52.716;6.444;2024-02-23T13:25:33;5.18;;;3.22;;
60472;SDS011;46318;52.716;6.444;2024-02-23T13:28:00;4.53;;;2.63;;
60472;SDS011;46318;52.716;6.444;2024-02-23T13:30:26;6.65;;;2.60;;
60472;SDS011;46318;52.716;6.444;2024-02-23T13:32:52;3.78;;;2.30;;
60472;SDS011;46318;52.716;6.444;2024-02-23T13:35:18;6.45;;;2.40;;
60472;SDS011;46318;52.716;6.444;2024-02-23T13:37:44;4.53;;;2.25;;
60472;SDS011;46318;52.716;6.444;2024-02-23T13:40:10;6.82;;;2.50;;
60472;SDS011;46318;52.716;6.444;2024-02-23T13:42:37;5.07;;;2.10;;
60472;SDS011;46318;52.716;6.444;2024-02-23T13:45:06;7.18;;;2.28;;
60472;SDS011;46318;52.716;6.444;2024-02-23T13:47:36;5.65;;;2.22;;
60472;SDS011;46318;52.716;6.444;2024-02-23T13:50:02;4.90;;;2.00;;
60472;SDS011;46318;52.716;6.444;2024-02-23T13:52:29;4.80;;;2.40;;
60472;SDS011;46318;52.716;6.444;2024-02-23T13:54:55;4.60;;;2.42;;
60472;SDS011;46318;52.716;6.444;2024-02-23T13:57:21;5.68;;;2.40;;
60472;SDS011;46318;52.716;6.444;2024-02-23T13:59:47;6.35;;;2.25;;
60472;SDS011;46318;52.716;6.444;2024-02-23T14:02:13;5.65;;;2.47;;
60472;SDS011;46318;52.716;6.444;2024-02-23T14:04:39;5.00;;;2.58;;
60472;SDS011;46318;52.716;6.444;2024-02-23T14:07:05;4.57;;;2.22;;
60472;SDS011;46318;52.716;6.444;2024-02-23T14:09:32;6.07;;;2.30;;
60472;SDS011;46318;52.716;6.444;2024-02-23T14:11:58;6.60;;;2.38;;
60472;SDS011;46318;52.716;6.444;2024-02-23T14:14:24;4.55;;;2.40;;
60472;SDS011;46318;52.716;6.444;2024-02-23T14:16:50;5.28;;;2.70;;
60472;SDS011;46318;52.716;6.444;2024-02-23T14:19:16;5.57;;;2.33;;
60472;SDS011;46318;52.716;6.444;2024-02-23T14:21:42;5.75;;;2.50;;
60472;SDS011;46318;52.716;6.444;2024-02-23T14:24:08;4.35;;;2.08;;
60472;SDS011;46318;52.716;6.444;2024-02-23T14:26:34;5.53;;;2.55;;
60472;SDS011;46318;52.716;6.444;2024-02-23T14:29:00;6.20;;;3.00;;
60472;SDS011;46318;52.716;6.444;2024-02-23T14:31:27;7.28;;;2.33;;
60472;SDS011;46318;52.716;6.444;2024-02-23T14:33:53;4.85;;;2.47;;
60472;SDS011;46318;52.716;6.444;2024-02-23T14:36:18;6.82;;;2.78;;
60472;SDS011;46318;52.716;6.444;2024-02-23T14:38:58;5.03;;;2.40;;
60472;SDS011;46318;52.716;6.444;2024-02-23T14:41:24;5.45;;;2.60;;
60472;SDS011;46318;52.716;6.444;2024-02-23T14:43:50;6.00;;;2.95;;
60472;SDS011;46318;52.716;6.444;2024-02-23T14:46:16;4.68;;;3.00;;
60472;SDS011;46318;52.716;6.444;2024-02-23T14:48:41;4.45;;;2.42;;
60472;SDS011;46318;52.716;6.444;2024-02-23T14:51:07;5.05;;;2.20;;